createdAt,value
2019-06-11T00:00:32.641Z,0
2019-06-11T00:01:32.314Z,0
2019-06-11T00:02:44.816Z,0
2019-06-11T00:03:32.531Z,0
2019-06-11T00:04:34.492Z,0
2019-06-11T00:05:36.965Z,0
2019-06-11T00:06:34.483Z,0
2019-06-11T00:07:32.570Z,0
2019-06-11T00:08:33.295Z,0
2019-06-11T00:09:33.880Z,0
2019-06-11T00:10:35.004Z,0
2019-06-11T00:11:32.475Z,0
2019-06-11T00:12:32.537Z,0
2019-06-11T00:13:32.924Z,0
2019-06-11T00:14:34.634Z,0
2019-06-11T00:15:32.905Z,0
2019-06-11T00:16:34.476Z,0
2019-06-11T00:17:32.999Z,0
2019-06-11T00:18:34.247Z,0
2019-06-11T00:19:34.777Z,0
2019-06-11T00:20:32.765Z,0
2019-06-11T00:21:33.048Z,0
2019-06-11T00:22:34.571Z,0
2019-06-11T00:23:32.606Z,0
2019-06-11T00:24:32.937Z,0
2019-06-11T00:25:35.245Z,0
2019-06-11T00:26:33.112Z,0
2019-06-11T00:27:33.105Z,0
2019-06-11T00:28:32.699Z,0
2019-06-11T00:29:33.098Z,0
2019-06-11T00:30:33.113Z,0
2019-06-11T00:31:34.216Z,0
2019-06-11T00:32:43.089Z,0
2019-06-11T00:33:32.989Z,0
2019-06-11T00:34:34.605Z,0
2019-06-11T00:35:34.565Z,0
2019-06-11T00:36:32.980Z,0
2019-06-11T00:37:32.632Z,0
2019-06-11T00:38:34.427Z,0
2019-06-11T00:39:32.855Z,0
2019-06-11T00:40:32.440Z,0
2019-06-11T00:41:33.144Z,0
2019-06-11T00:42:32.727Z,0
2019-06-11T00:43:34.613Z,0
2019-06-11T00:44:35.046Z,0
2019-06-11T00:45:35.581Z,0
2019-06-11T00:46:34.938Z,0
2019-06-11T00:47:35.352Z,0
2019-06-11T00:48:33.155Z,0
2019-06-11T00:49:32.994Z,0
2019-06-11T00:50:33.202Z,0
2019-06-11T00:51:35.029Z,0
2019-06-11T00:52:32.900Z,0
2019-06-11T00:53:36.449Z,0
2019-06-11T00:54:34.530Z,0
2019-06-11T00:55:34.551Z,0
2019-06-11T00:56:34.658Z,0
2019-06-11T00:57:32.881Z,0
2019-06-11T00:58:32.482Z,0
2019-06-11T00:59:35.598Z,0
2019-06-11T01:00:35.432Z,0
2019-06-11T01:01:32.637Z,0
2019-06-11T01:02:52.573Z,0
2019-06-11T01:03:32.757Z,0
2019-06-11T01:04:34.558Z,0
2019-06-11T01:05:32.455Z,0
2019-06-11T01:06:34.392Z,0
2019-06-11T01:07:32.307Z,0
2019-06-11T01:08:33.077Z,0
2019-06-11T01:09:34.918Z,0
2019-06-11T01:10:34.599Z,0
2019-06-11T01:11:32.980Z,0
2019-06-11T01:12:34.870Z,0
2019-06-11T01:13:33.275Z,0
2019-06-11T01:14:35.515Z,0
2019-06-11T01:15:34.331Z,0
2019-06-11T01:16:32.909Z,0
2019-06-11T01:17:35.299Z,0
2019-06-11T01:18:35.065Z,0
2019-06-11T01:19:34.604Z,0
2019-06-11T01:20:35.436Z,0
2019-06-11T01:21:34.685Z,0
2019-06-11T01:22:32.777Z,0
2019-06-11T01:23:33.485Z,0
2019-06-11T01:24:33.027Z,0
2019-06-11T01:25:34.847Z,0
2019-06-11T01:26:34.353Z,0
2019-06-11T01:27:32.752Z,0
2019-06-11T01:28:35.119Z,0
2019-06-11T01:29:34.425Z,0
2019-06-11T01:30:34.074Z,0
2019-06-11T01:31:33.102Z,0
2019-06-11T01:32:32.709Z,0
2019-06-11T01:33:34.632Z,0
2019-06-11T01:34:32.886Z,0
2019-06-11T01:35:35.015Z,0
2019-06-11T01:36:34.611Z,0
2019-06-11T01:37:34.851Z,0
2019-06-11T01:38:34.688Z,0
2019-06-11T01:39:32.164Z,0
2019-06-11T01:40:34.295Z,0
2019-06-11T01:41:32.906Z,0
2019-06-11T01:42:32.660Z,0
2019-06-11T01:43:34.803Z,0
2019-06-11T01:44:34.703Z,0
2019-06-11T01:45:33.244Z,0
2019-06-11T01:46:32.770Z,0
2019-06-11T01:47:32.595Z,0
2019-06-11T01:48:34.703Z,0
2019-06-11T01:49:32.826Z,0
2019-06-11T01:50:33.003Z,0
2019-06-11T01:51:34.938Z,0
2019-06-11T01:52:32.569Z,0
2019-06-11T01:53:35.009Z,0
2019-06-11T01:54:32.652Z,0
2019-06-11T01:55:34.331Z,0
2019-06-11T01:56:34.227Z,0
2019-06-11T01:57:34.695Z,0
2019-06-11T01:58:33.356Z,0
2019-06-11T01:59:34.797Z,0
2019-06-11T02:00:39.625Z,0
2019-06-11T02:01:38.243Z,0
2019-06-11T02:02:34.787Z,0
2019-06-11T02:03:52.493Z,0
2019-06-11T02:04:33.094Z,0
2019-06-11T02:05:32.833Z,0
2019-06-11T02:06:34.483Z,0
2019-06-11T02:07:32.964Z,0
2019-06-11T02:08:35.083Z,0
2019-06-11T02:09:33.068Z,0
2019-06-11T02:10:33.056Z,0
2019-06-11T02:11:34.620Z,0
2019-06-11T02:12:32.772Z,0
2019-06-11T02:13:33.314Z,0
2019-06-11T02:14:32.683Z,0
2019-06-11T02:15:34.858Z,0
2019-06-11T02:16:35.444Z,0
2019-06-11T02:17:32.524Z,0
2019-06-11T02:18:35.474Z,0
2019-06-11T02:19:34.659Z,0
2019-06-11T02:20:32.907Z,0
2019-06-11T02:21:34.480Z,0
2019-06-11T02:22:33.127Z,0
2019-06-11T02:23:32.561Z,0
2019-06-11T02:24:34.480Z,0
2019-06-11T02:25:32.667Z,0
2019-06-11T02:26:32.640Z,0
2019-06-11T02:27:34.252Z,0
2019-06-11T02:28:32.807Z,0
2019-06-11T02:29:32.302Z,0
2019-06-11T02:31:19.771Z,0
2019-06-11T02:31:48.016Z,0
2019-06-11T02:32:43.853Z,0
2019-06-11T02:35:16.153Z,0
2019-06-11T02:36:32.175Z,0
2019-06-11T02:36:52.059Z,0
2019-06-11T02:37:47.631Z,0
2019-06-11T02:38:51.113Z,0
2019-06-11T02:39:51.800Z,0
2019-06-11T02:40:51.730Z,0
2019-06-11T02:41:47.029Z,0
2019-06-11T02:42:51.702Z,0
2019-06-11T02:43:51.122Z,0
2019-06-11T02:44:52.285Z,0
2019-06-11T02:45:46.826Z,0
2019-06-11T02:46:51.321Z,0
2019-06-11T02:47:46.953Z,0
2019-06-11T02:49:04.039Z,0
2019-06-11T02:49:48.265Z,0
2019-06-11T02:50:52.370Z,0
2019-06-11T02:51:51.956Z,0
2019-06-11T02:52:51.765Z,0
2019-06-11T02:53:51.195Z,0
2019-06-11T02:54:47.936Z,0
2019-06-11T02:55:51.140Z,0
2019-06-11T02:56:49.080Z,0
2019-06-11T02:57:51.526Z,0
2019-06-11T02:58:51.478Z,0
2019-06-11T02:59:51.396Z,0
2019-06-11T03:01:04.262Z,0
2019-06-11T03:01:51.247Z,0
2019-06-11T03:02:47.044Z,0
2019-06-11T03:04:08.166Z,0
2019-06-11T03:05:43.182Z,0
2019-06-11T03:05:56.838Z,0
2019-06-11T03:06:56.158Z,0
2019-06-11T03:07:56.672Z,0
2019-06-11T03:08:56.737Z,0
2019-06-11T03:09:56.593Z,0
2019-06-11T03:11:05.193Z,0
2019-06-11T03:12:01.383Z,0
2019-06-11T03:12:56.182Z,0
2019-06-11T03:13:56.211Z,0
2019-06-11T03:14:56.351Z,0
2019-06-11T03:15:55.828Z,0
2019-06-11T03:16:56.850Z,0
2019-06-11T03:17:56.653Z,0
2019-06-11T03:18:55.931Z,0
2019-06-11T03:19:56.399Z,0
2019-06-11T03:20:56.302Z,0
2019-06-11T03:21:56.614Z,0
2019-06-11T03:22:56.259Z,0
2019-06-11T03:23:56.556Z,0
2019-06-11T03:24:56.122Z,0
2019-06-11T03:25:56.019Z,0
2019-06-11T03:26:56.363Z,0
2019-06-11T03:27:57.141Z,0
2019-06-11T03:28:55.365Z,0
2019-06-11T03:29:57.171Z,0
2019-06-11T03:34:23.784Z,0
2019-06-11T03:38:22.919Z,5
2019-06-11T03:40:01.751Z,5
2019-06-11T03:40:36.274Z,5
2019-06-11T03:41:28.131Z,5
2019-06-11T03:42:41.571Z,5
2019-06-11T03:43:33.275Z,5
2019-06-11T03:44:35.251Z,10
2019-06-11T03:45:31.987Z,10
2019-06-11T03:46:35.536Z,10
2019-06-11T03:47:28.054Z,10
2019-06-11T03:48:29.788Z,10
2019-06-11T03:49:36.178Z,10
2019-06-11T03:50:33.381Z,15
2019-06-11T03:51:34.596Z,15
2019-06-11T03:52:31.161Z,15
2019-06-11T03:53:35.380Z,15
2019-06-11T03:54:30.845Z,15
2019-06-11T03:55:31.029Z,15
2019-06-11T03:56:35.540Z,15
2019-06-11T03:57:30.551Z,15
2019-06-11T03:58:37.316Z,15
2019-06-11T03:59:27.549Z,15
2019-06-11T04:01:01.834Z,15
2019-06-11T04:01:38.697Z,20
2019-06-11T04:02:26.842Z,20
2019-06-11T04:03:31.657Z,20
2019-06-11T04:04:31.741Z,25
2019-06-11T04:05:31.648Z,25
2019-06-11T04:07:16.568Z,30
2019-06-11T04:08:04.653Z,30
2019-06-11T04:08:44.231Z,30
2019-06-11T04:09:45.953Z,30
2019-06-11T04:10:46.983Z,35
2019-06-11T04:11:41.250Z,35
2019-06-11T04:12:45.256Z,35
2019-06-11T04:13:45.072Z,35
2019-06-11T04:14:43.698Z,35
2019-06-11T04:15:46.224Z,40
2019-06-11T04:17:58.105Z,40
2019-06-11T04:18:21.067Z,45
2019-06-11T04:19:15.157Z,40
2019-06-11T04:20:14.800Z,40
2019-06-11T04:21:15.457Z,35
2019-06-11T04:22:14.459Z,35
2019-06-11T04:23:33.017Z,35
2019-06-11T04:24:14.726Z,40
2019-06-11T04:25:15.697Z,45
2019-06-11T04:26:14.921Z,45
2019-06-11T04:27:15.594Z,50
2019-06-11T04:28:15.023Z,50
2019-06-11T04:29:15.100Z,50
2019-06-11T04:30:55.390Z,45
2019-06-11T04:31:16.264Z,45
2019-06-11T04:32:15.110Z,50
2019-06-11T04:33:15.035Z,50
2019-06-11T04:34:16.267Z,45
2019-06-11T04:35:15.351Z,45
2019-06-11T04:36:15.595Z,40
2019-06-11T04:38:28.375Z,40
2019-06-11T04:39:01.546Z,40
2019-06-11T04:39:51.815Z,40
2019-06-11T04:40:52.027Z,35
2019-06-11T04:41:47.966Z,35
2019-06-11T04:42:51.415Z,35
2019-06-11T04:43:52.209Z,35
2019-06-11T04:44:51.243Z,35
2019-06-11T04:45:47.401Z,35
2019-06-11T04:46:51.383Z,30
2019-06-11T04:48:01.904Z,30
2019-06-11T04:48:51.810Z,25
2019-06-11T04:49:54.077Z,20
2019-06-11T04:50:51.991Z,20
2019-06-11T04:51:51.316Z,20
2019-06-11T04:52:47.513Z,25
2019-06-11T04:53:52.338Z,25
2019-06-11T04:54:51.892Z,25
2019-06-11T04:55:51.377Z,20
2019-06-11T04:56:54.330Z,20
2019-06-11T04:57:52.240Z,20
2019-06-11T04:58:54.317Z,15
2019-06-11T04:59:51.031Z,15
2019-06-11T05:05:10.660Z,25
2019-06-11T05:05:43.061Z,25
2019-06-11T05:06:45.350Z,25
2019-06-11T05:08:27.511Z,30
2019-06-11T05:08:55.172Z,30
2019-06-11T05:09:53.924Z,30
2019-06-11T05:11:01.401Z,35
2019-06-11T05:11:56.092Z,40
2019-06-11T05:12:52.198Z,45
2019-06-11T05:14:36.261Z,50
2019-06-11T05:15:11.266Z,50
2019-06-11T05:15:54.887Z,50
2019-06-11T05:16:57.109Z,55
2019-06-11T05:17:55.097Z,55
2019-06-11T05:18:54.383Z,60
2019-06-11T05:19:56.466Z,60
2019-06-11T05:20:54.587Z,60
2019-06-11T05:21:56.074Z,65
2019-06-11T05:22:54.280Z,70
2019-06-11T05:23:55.206Z,75
2019-06-11T05:24:55.561Z,85
2019-06-11T05:26:26.373Z,85
2019-06-11T05:26:53.694Z,90
2019-06-11T05:27:51.278Z,100
2019-06-11T05:28:51.205Z,105
2019-06-11T05:29:53.586Z,105
2019-06-11T05:30:57.271Z,105
2019-06-11T05:32:02.093Z,105
2019-06-11T05:32:54.284Z,105
2019-06-11T05:33:53.678Z,105
2019-06-11T05:34:53.719Z,105
2019-06-11T05:35:53.075Z,100
2019-06-11T05:36:54.148Z,100
2019-06-11T05:38:54.451Z,100
2019-06-11T05:39:05.918Z,95
2019-06-11T05:40:06.411Z,95
2019-06-11T05:41:07.852Z,95
2019-06-11T05:42:06.474Z,95
2019-06-11T05:43:05.971Z,90
2019-06-11T05:44:05.504Z,90
2019-06-11T05:45:17.194Z,85
2019-06-11T05:46:07.698Z,85
2019-06-11T05:47:05.420Z,80
2019-06-11T05:48:06.088Z,80
2019-06-11T05:49:06.960Z,80
2019-06-11T05:50:09.994Z,80
2019-06-11T05:51:05.791Z,85
2019-06-11T05:52:05.154Z,85
2019-06-11T05:53:05.891Z,80
2019-06-11T05:54:05.668Z,80
2019-06-11T05:55:05.374Z,80
2019-06-11T05:56:04.720Z,80
2019-06-11T05:57:05.741Z,80
2019-06-11T05:58:05.748Z,80
2019-06-11T05:59:05.222Z,80
2019-06-11T06:00:05.659Z,80
2019-06-11T06:02:01.293Z,75
2019-06-11T06:02:21.261Z,75
2019-06-11T06:03:15.369Z,70
2019-06-11T06:04:15.882Z,75
2019-06-11T06:05:15.210Z,80
2019-06-11T06:06:15.982Z,85
2019-06-11T06:07:15.226Z,90
2019-06-11T06:08:36.935Z,95
2019-06-11T06:09:20.076Z,100
2019-06-11T06:10:14.723Z,95
2019-06-11T06:11:15.495Z,105
2019-06-11T06:12:15.460Z,105
2019-06-11T06:13:16.033Z,110
2019-06-11T06:14:15.505Z,120
2019-06-11T06:15:17.132Z,130
2019-06-11T06:16:15.749Z,135
2019-06-11T06:17:15.616Z,140
2019-06-11T06:18:15.219Z,140
2019-06-11T06:19:16.547Z,140
2019-06-11T06:20:15.345Z,130
2019-06-11T06:21:15.300Z,125
2019-06-11T06:22:15.776Z,120
2019-06-11T06:23:15.982Z,125
2019-06-11T06:24:50.482Z,120
2019-06-11T06:25:16.459Z,115
2019-06-11T06:26:17.600Z,105
2019-06-11T06:27:15.166Z,100
2019-06-11T06:28:15.633Z,95
2019-06-11T06:29:16.239Z,90
2019-06-11T06:30:24.936Z,85
2019-06-11T06:31:15.275Z,90
2019-06-11T06:32:15.274Z,100
2019-06-11T06:33:16.410Z,105
2019-06-11T06:34:15.022Z,115
2019-06-11T06:35:16.427Z,115
2019-06-11T06:36:14.742Z,110
2019-06-11T06:37:15.808Z,110
2019-06-11T06:38:42.967Z,105
2019-06-11T06:39:16.523Z,100
2019-06-11T06:40:15.181Z,100
2019-06-11T06:41:14.861Z,95
2019-06-11T06:42:15.984Z,95
2019-06-11T06:43:15.421Z,95
2019-06-11T06:44:15.162Z,105
2019-06-11T06:45:15.749Z,120
2019-06-11T06:46:15.101Z,125
2019-06-11T06:47:16.732Z,125
2019-06-11T06:48:15.800Z,130
2019-06-11T06:49:16.394Z,130
2019-06-11T06:50:15.553Z,130
2019-06-11T06:51:16.514Z,125
2019-06-11T06:52:15.643Z,120
2019-06-11T06:53:15.947Z,120
2019-06-11T06:54:17.413Z,130
2019-06-11T06:55:14.545Z,140
2019-06-11T06:56:14.993Z,140
2019-06-11T06:57:14.984Z,145
2019-06-11T06:58:15.731Z,145
2019-06-11T06:59:15.446Z,135
2019-06-11T07:00:22.845Z,130
2019-06-11T07:01:18.892Z,130
2019-06-11T07:02:15.706Z,140
2019-06-11T07:03:16.046Z,150
2019-06-11T07:04:20.978Z,165
2019-06-11T07:05:14.898Z,175
2019-06-11T07:06:15.690Z,175
2019-06-11T07:07:15.864Z,180
2019-06-11T07:08:16.214Z,180
2019-06-11T07:09:21.331Z,175
2019-06-11T07:10:15.252Z,170
2019-06-11T07:11:15.398Z,170
2019-06-11T07:12:15.758Z,175
2019-06-11T07:13:18.129Z,180
2019-06-11T07:14:16.084Z,180
2019-06-11T07:15:16.054Z,185
2019-06-11T07:16:16.449Z,185
2019-06-11T07:17:20.657Z,180
2019-06-11T07:18:16.594Z,175
2019-06-11T07:19:15.569Z,165
2019-06-11T07:20:15.079Z,160
2019-06-11T07:21:16.047Z,155
2019-06-11T07:22:15.916Z,150
2019-06-11T07:23:15.944Z,145
2019-06-11T07:24:20.842Z,140
2019-06-11T07:25:15.883Z,135
2019-06-11T07:26:16.170Z,125
2019-06-11T07:27:15.625Z,115
2019-06-11T07:28:15.937Z,105
2019-06-11T07:29:15.887Z,95
2019-06-11T07:30:17.628Z,95
2019-06-11T07:31:16.988Z,100
2019-06-11T07:32:16.242Z,100
2019-06-11T07:33:22.957Z,105
2019-06-11T07:34:16.166Z,105
2019-06-11T07:35:16.209Z,105
2019-06-11T07:36:17.913Z,100
2019-06-11T07:39:31.979Z,90
2019-06-11T07:39:55.794Z,90
2019-06-11T07:40:55.138Z,90
2019-06-11T07:41:54.192Z,90
2019-06-11T07:42:55.280Z,90
2019-06-11T07:45:57.170Z,90
2019-06-11T07:48:33.204Z,115
2019-06-11T07:49:11.202Z,125
2019-06-11T07:49:55.853Z,130
2019-06-11T07:50:54.607Z,140
2019-06-11T07:51:57.642Z,150
2019-06-11T07:52:56.275Z,155
2019-06-11T07:53:56.556Z,170
2019-06-11T07:54:54.470Z,180
2019-06-11T07:55:51.327Z,195
2019-06-11T07:56:56.020Z,225
2019-06-11T07:58:01.740Z,260
2019-06-11T07:58:54.427Z,290
2019-06-11T07:59:54.074Z,315
2019-06-11T08:01:03.109Z,340
2019-06-11T08:02:03.791Z,365
2019-06-11T08:02:54.588Z,415
2019-06-11T08:03:55.468Z,525
2019-06-11T08:05:01.281Z,435
2019-06-11T08:06:06.484Z,320
2019-06-11T08:07:03.892Z,295
2019-06-11T08:08:12.286Z,285
2019-06-11T08:11:07.884Z,260
2019-06-11T08:11:26.093Z,260
2019-06-11T08:12:25.409Z,265
2019-06-11T08:13:26.012Z,260
2019-06-11T08:14:32.035Z,250
2019-06-11T08:15:25.173Z,235
2019-06-11T08:16:40.338Z,230
2019-06-11T08:17:26.199Z,230
2019-06-11T08:18:26.810Z,235
2019-06-11T08:22:08.357Z,245
2019-06-11T08:25:11.402Z,275
2019-06-11T08:28:11.512Z,300
2019-06-11T08:28:27.670Z,305
2019-06-11T08:29:23.965Z,315
2019-06-11T08:30:24.955Z,320
2019-06-11T08:31:23.663Z,325
2019-06-11T08:32:23.062Z,320
2019-06-11T08:33:23.770Z,330
2019-06-11T08:34:24.909Z,345
2019-06-11T08:35:30.442Z,350
2019-06-11T08:36:23.357Z,355
2019-06-11T08:37:24.695Z,355
2019-06-11T08:38:23.247Z,355
2019-06-11T08:39:23.269Z,350
2019-06-11T08:40:32.298Z,355
2019-06-11T08:41:23.330Z,355
2019-06-11T08:42:23.346Z,360
2019-06-11T08:43:23.827Z,365
2019-06-11T08:44:23.360Z,370
2019-06-11T08:45:33.206Z,370
2019-06-11T08:46:23.353Z,370
2019-06-11T08:47:23.336Z,365
2019-06-11T08:48:23.093Z,360
2019-06-11T08:49:25.052Z,355
2019-06-11T08:50:23.287Z,350
2019-06-11T08:51:24.855Z,335
2019-06-11T08:52:24.466Z,330
2019-06-11T08:53:31.747Z,325
2019-06-11T08:54:24.475Z,315
2019-06-11T08:55:24.987Z,300
2019-06-11T08:56:23.796Z,290
2019-06-11T08:57:25.062Z,280
2019-06-11T08:58:25.435Z,275
2019-06-11T08:59:23.245Z,260
2019-06-11T09:01:14.341Z,230
2019-06-11T09:01:25.214Z,235
2019-06-11T09:02:25.624Z,225
2019-06-11T09:03:25.204Z,235
2019-06-11T09:04:25.069Z,235
2019-06-11T09:05:25.512Z,245
2019-06-11T09:06:26.623Z,245
2019-06-11T09:07:24.759Z,245
2019-06-11T09:08:24.919Z,250
2019-06-11T09:09:26.104Z,260
2019-06-11T09:10:47.115Z,295
2019-06-11T09:11:25.110Z,310
2019-06-11T09:12:26.305Z,320
2019-06-11T09:13:25.568Z,325
2019-06-11T09:14:25.471Z,330
2019-06-11T09:15:25.062Z,330
2019-06-11T09:16:25.963Z,345
2019-06-11T09:17:26.644Z,355
2019-06-11T09:18:25.988Z,360
2019-06-11T09:19:25.440Z,365
2019-06-11T09:20:25.436Z,365
2019-06-11T09:21:26.965Z,360
2019-06-11T09:22:25.827Z,360
2019-06-11T09:23:25.116Z,355
2019-06-11T09:24:30.179Z,325
2019-06-11T09:25:27.653Z,290
2019-06-11T09:26:26.031Z,275
2019-06-11T09:27:25.159Z,265
2019-06-11T09:28:25.681Z,255
2019-06-11T09:29:25.286Z,255
2019-06-11T09:30:26.681Z,260
2019-06-11T09:31:26.411Z,280
2019-06-11T09:32:25.324Z,315
2019-06-11T09:33:26.091Z,325
2019-06-11T09:34:25.108Z,330
2019-06-11T09:35:25.283Z,320
2019-06-11T09:36:26.180Z,300
2019-06-11T09:37:25.595Z,285
2019-06-11T09:38:24.783Z,280
2019-06-11T09:39:25.112Z,280
2019-06-11T09:40:38.429Z,275
2019-06-11T09:41:25.428Z,270
2019-06-11T09:42:25.601Z,270
2019-06-11T09:43:27.565Z,265
2019-06-11T09:44:25.798Z,260
2019-06-11T09:45:25.903Z,250
2019-06-11T09:46:26.060Z,240
2019-06-11T09:47:50.364Z,230
2019-06-11T09:48:25.361Z,225
2019-06-11T09:49:25.791Z,215
2019-06-11T09:50:25.948Z,205
2019-06-11T09:51:26.079Z,195
2019-06-11T09:52:25.329Z,195
2019-06-11T09:53:25.676Z,195
2019-06-11T09:54:25.771Z,200
2019-06-11T09:55:25.398Z,190
2019-06-11T09:56:25.727Z,180
2019-06-11T09:57:24.877Z,180
2019-06-11T09:58:26.382Z,180
2019-06-11T09:59:24.661Z,180
2019-06-11T10:00:25.799Z,185
2019-06-11T10:01:25.168Z,200
2019-06-11T10:02:25.720Z,215
2019-06-11T10:03:24.799Z,225
2019-06-11T10:04:26.157Z,245
2019-06-11T10:05:25.411Z,265
2019-06-11T10:06:25.444Z,270
2019-06-11T10:07:25.941Z,280
2019-06-11T10:08:24.233Z,280
2019-06-11T10:09:25.927Z,275
2019-06-11T10:10:52.881Z,270
2019-06-11T10:12:10.602Z,280
2019-06-11T10:12:25.101Z,275
2019-06-11T10:13:24.863Z,275
2019-06-11T10:14:25.860Z,275
2019-06-11T10:15:25.282Z,265
2019-06-11T10:16:27.430Z,275
2019-06-11T10:17:25.052Z,295
2019-06-11T10:18:24.947Z,305
2019-06-11T10:19:25.379Z,310
2019-06-11T10:20:25.499Z,305
2019-06-11T10:21:25.652Z,295
2019-06-11T10:22:25.567Z,285
2019-06-11T10:23:25.650Z,275
2019-06-11T10:24:26.806Z,265
2019-06-11T10:25:25.190Z,260
2019-06-11T10:26:26.368Z,255
2019-06-11T10:27:25.372Z,255
2019-06-11T10:28:35.686Z,260
2019-06-11T10:29:25.386Z,260
2019-06-11T10:30:25.638Z,255
2019-06-11T10:31:25.493Z,250
2019-06-11T10:32:25.792Z,255
2019-06-11T10:33:25.291Z,265
2019-06-11T10:34:25.191Z,265
2019-06-11T10:35:24.561Z,250
2019-06-11T10:36:23.754Z,235
2019-06-11T10:37:27.759Z,230
2019-06-11T10:38:24.691Z,235
2019-06-11T10:39:26.100Z,245
2019-06-11T10:40:25.588Z,240
2019-06-11T10:41:25.497Z,235
2019-06-11T10:42:41.837Z,220
2019-06-11T10:43:25.291Z,220
2019-06-11T10:44:25.035Z,220
2019-06-11T10:45:25.512Z,215
2019-06-11T10:46:26.345Z,225
2019-06-11T10:47:25.454Z,230
2019-06-11T10:48:31.212Z,230
2019-06-11T10:49:25.813Z,220
2019-06-11T10:50:26.091Z,220
2019-06-11T10:51:25.084Z,220
2019-06-11T10:52:24.854Z,215
2019-06-11T10:53:26.063Z,220
2019-06-11T10:54:25.203Z,230
2019-06-11T10:55:23.642Z,235
2019-06-11T10:56:23.894Z,235
2019-06-11T10:57:25.907Z,235
2019-06-11T10:58:28.639Z,235
2019-06-11T10:59:25.833Z,235
2019-06-11T11:00:25.833Z,235
2019-06-11T11:01:25.310Z,245
2019-06-11T11:02:25.663Z,250
2019-06-11T11:03:25.225Z,255
2019-06-11T11:04:24.937Z,250
2019-06-11T11:05:25.245Z,250
2019-06-11T11:06:25.258Z,250
2019-06-11T11:07:24.823Z,250
2019-06-11T11:08:25.452Z,245
2019-06-11T11:09:26.214Z,240
2019-06-11T11:10:25.721Z,235
2019-06-11T11:11:26.610Z,235
2019-06-11T11:12:35.398Z,230
2019-06-11T11:13:25.868Z,220
2019-06-11T11:14:24.306Z,225
2019-06-11T11:15:23.908Z,215
2019-06-11T11:16:25.232Z,205
2019-06-11T11:17:25.620Z,195
2019-06-11T11:18:25.896Z,195
2019-06-11T11:19:24.908Z,185
2019-06-11T11:20:25.422Z,185
2019-06-11T11:21:25.393Z,185
2019-06-11T11:22:25.840Z,185
2019-06-11T11:23:24.798Z,190
2019-06-11T11:24:25.489Z,190
2019-06-11T11:25:24.856Z,195
2019-06-11T11:26:25.827Z,185
2019-06-11T11:27:25.129Z,165
2019-06-11T11:28:34.989Z,165
2019-06-11T11:29:25.115Z,180
2019-06-11T11:30:23.868Z,190
2019-06-11T11:31:26.746Z,195
2019-06-11T11:32:25.301Z,185
2019-06-11T11:33:25.939Z,175
2019-06-11T11:34:25.871Z,165
2019-06-11T11:35:25.536Z,160
2019-06-11T11:36:25.089Z,175
2019-06-11T11:37:26.026Z,185
2019-06-11T11:38:25.538Z,175
2019-06-11T11:39:25.154Z,155
2019-06-11T11:40:25.311Z,145
2019-06-11T11:41:25.489Z,140
2019-06-11T11:42:46.620Z,115
2019-06-11T11:43:25.498Z,110
2019-06-11T11:44:25.414Z,110
2019-06-11T11:45:24.213Z,115
2019-06-11T11:46:25.630Z,130
2019-06-11T11:47:25.265Z,155
2019-06-11T11:48:25.273Z,155
2019-06-11T11:49:30.965Z,150
2019-06-11T11:50:25.032Z,150
2019-06-11T11:51:25.754Z,150
2019-06-11T11:52:24.945Z,150
2019-06-11T11:53:25.076Z,155
2019-06-11T11:54:30.778Z,150
2019-06-11T11:55:25.274Z,150
2019-06-11T11:56:26.852Z,160
2019-06-11T11:57:25.899Z,165
2019-06-11T11:58:25.134Z,155
2019-06-11T11:59:25.157Z,150
2019-06-11T12:00:28.693Z,150
2019-06-11T12:01:25.761Z,150
2019-06-11T12:02:26.095Z,160
2019-06-11T12:03:26.163Z,165
2019-06-11T12:04:26.018Z,165
2019-06-11T12:05:25.272Z,170
2019-06-11T12:06:25.559Z,175
2019-06-11T12:07:24.966Z,185
2019-06-11T12:08:30.908Z,190
2019-06-11T12:09:26.029Z,200
2019-06-11T12:10:25.139Z,195
2019-06-11T12:11:31.091Z,190
2019-06-11T12:12:24.483Z,185
2019-06-11T12:13:25.313Z,180
2019-06-11T12:14:25.222Z,170
2019-06-11T12:15:26.218Z,165
2019-06-11T12:16:48.108Z,160
2019-06-11T12:17:24.681Z,150
2019-06-11T12:18:25.694Z,140
2019-06-11T12:19:33.198Z,135
2019-06-11T12:20:25.236Z,130
2019-06-11T12:21:24.830Z,130
2019-06-11T12:22:25.034Z,130
2019-06-11T12:23:25.553Z,130
2019-06-11T12:24:24.392Z,135
2019-06-11T12:25:45.838Z,135
2019-06-11T12:26:25.611Z,135
2019-06-11T12:27:25.087Z,140
2019-06-11T12:28:25.756Z,140
2019-06-11T12:29:25.140Z,135
2019-06-11T12:30:25.668Z,135
2019-06-11T12:31:24.629Z,135
2019-06-11T12:32:25.551Z,125
2019-06-11T12:33:25.160Z,115
2019-06-11T12:34:25.559Z,115
2019-06-11T12:35:25.288Z,110
2019-06-11T12:36:25.966Z,115
2019-06-11T12:37:25.525Z,120
2019-06-11T12:38:24.105Z,125
2019-06-11T12:39:24.661Z,130
2019-06-11T12:40:23.959Z,135
2019-06-11T12:41:26.126Z,135
2019-06-11T12:42:24.458Z,135
2019-06-11T12:43:46.194Z,130
2019-06-11T12:44:24.799Z,125
2019-06-11T12:45:25.884Z,120
2019-06-11T12:46:25.528Z,115
2019-06-11T12:47:28.459Z,115
2019-06-11T12:48:25.926Z,115
2019-06-11T12:49:26.385Z,120
2019-06-11T12:50:25.646Z,130
2019-06-11T12:51:29.151Z,140
2019-06-11T12:52:26.241Z,150
2019-06-11T12:53:26.166Z,155
2019-06-11T12:54:25.408Z,160
2019-06-11T12:55:25.868Z,165
2019-06-11T12:56:25.504Z,165
2019-06-11T12:57:24.887Z,165
2019-06-11T12:58:30.127Z,155
2019-06-11T12:59:25.369Z,145
2019-06-11T13:00:26.099Z,145
2019-06-11T13:01:25.266Z,140
2019-06-11T13:02:26.651Z,135
2019-06-11T13:03:33.470Z,135
2019-06-11T13:04:25.303Z,145
2019-06-11T13:05:25.819Z,180
2019-06-11T13:06:26.169Z,200
2019-06-11T13:07:25.778Z,205
2019-06-11T13:08:26.165Z,200
2019-06-11T13:09:30.903Z,200
2019-06-11T13:10:23.732Z,210
2019-06-11T13:11:26.259Z,220
2019-06-11T13:12:24.576Z,220
2019-06-11T13:13:45.796Z,210
2019-06-11T13:14:24.594Z,200
2019-06-11T13:15:24.916Z,180
2019-06-11T13:16:26.597Z,165
2019-06-11T13:17:25.924Z,145
2019-06-11T13:18:24.869Z,135
2019-06-11T13:19:27.213Z,130
2019-06-11T13:20:25.555Z,140
2019-06-11T13:21:25.953Z,150
2019-06-11T13:22:25.475Z,150
2019-06-11T13:23:26.172Z,135
2019-06-11T13:24:25.294Z,125
2019-06-11T13:25:25.627Z,135
2019-06-11T13:26:25.841Z,140
2019-06-11T13:27:30.503Z,150
2019-06-11T13:28:24.626Z,165
2019-06-11T13:29:26.126Z,180
2019-06-11T13:30:25.232Z,175
2019-06-11T13:31:25.413Z,190
2019-06-11T13:32:25.784Z,200
2019-06-11T13:33:24.788Z,200
2019-06-11T13:34:25.594Z,190
2019-06-11T13:35:25.727Z,175
2019-06-11T13:36:30.416Z,175
2019-06-11T13:37:25.138Z,175
2019-06-11T13:38:31.060Z,170
2019-06-11T13:39:25.184Z,160
2019-06-11T13:40:25.639Z,160
2019-06-11T13:41:26.056Z,160
2019-06-11T13:42:30.227Z,155
2019-06-11T13:43:24.699Z,150
2019-06-11T13:44:46.390Z,135
2019-06-11T13:45:25.830Z,130
2019-06-11T13:46:25.796Z,125
2019-06-11T13:47:25.230Z,125
2019-06-11T13:48:26.665Z,145
2019-06-11T13:49:26.239Z,165
2019-06-11T13:50:26.378Z,180
2019-06-11T13:51:26.382Z,185
2019-06-11T13:52:26.276Z,185
2019-06-11T13:53:26.880Z,195
2019-06-11T13:54:30.010Z,200
2019-06-11T13:55:27.018Z,195
2019-06-11T13:56:30.643Z,175
2019-06-11T13:57:30.491Z,170
2019-06-11T13:58:26.482Z,185
2019-06-11T13:59:25.367Z,185
2019-06-11T14:00:30.539Z,185
2019-06-11T14:01:24.971Z,160
2019-06-11T14:02:25.647Z,150
2019-06-11T14:03:25.599Z,140
2019-06-11T14:04:26.849Z,135
2019-06-11T14:05:26.562Z,130
2019-06-11T14:06:24.238Z,130
2019-06-11T14:07:24.501Z,125
2019-06-11T14:08:23.974Z,120
2019-06-11T14:09:26.332Z,110
2019-06-11T14:10:24.038Z,100
2019-06-11T14:11:24.000Z,85
2019-06-11T14:12:25.968Z,75
2019-06-11T14:13:26.345Z,70
2019-06-11T14:14:43.222Z,70
2019-06-11T14:15:24.584Z,65
2019-06-11T14:16:26.754Z,65
2019-06-11T14:17:29.796Z,65
2019-06-11T14:18:26.365Z,65
2019-06-11T14:19:27.001Z,60
2019-06-11T14:20:24.344Z,60
2019-06-11T14:21:27.055Z,55
2019-06-11T14:22:25.315Z,55
2019-06-11T14:23:24.719Z,60
2019-06-11T14:24:25.712Z,60
2019-06-11T14:25:25.072Z,60
2019-06-11T14:26:26.631Z,70
2019-06-11T14:27:24.899Z,70
2019-06-11T14:28:30.883Z,75
2019-06-11T14:29:40.319Z,80
2019-06-11T14:30:30.695Z,85
2019-06-11T14:31:48.159Z,90
2019-06-11T14:32:37.238Z,95